Time;durP1;ratioP1;P1;durP2;ratioP2;P2;SDS_P1;SDS_P2;PMS_P1;PMS_P2;Temp;Humidity;BMP_temperature;BMP_pressure;BME280_temperature;BME280_humidity;BME280_pressure;Samples;Min_cycle;Max_cycle;Signal;HPM_P1;HPM_P2
2021/04/28 00:02:06;;;;;;;5.90;3.97;;;20.70;63.00;;;;;;5169047;27;20414;-41
2021/04/28 00:04:36;;;;;;;4.17;3.87;;;20.60;61.90;;;;;;5163241;27;20490;-41
2021/04/28 00:07:06;;;;;;;4.30;3.37;;;20.60;62.40;;;;;;5164315;27;20456;-40
2021/04/28 00:09:36;;;;;;;3.50;3.20;;;20.60;63.20;;;;;;5164492;27;20502;-41
2021/04/28 00:12:08;;;;;;;3.60;3.30;;;20.70;62.10;;;;;;5163184;27;20430;-40
2021/04/28 00:14:38;;;;;;;3.27;3.07;;;20.70;62.50;;;;;;5164006;27;20444;-40
2021/04/28 00:17:10;;;;;;;3.20;2.90;;;20.60;62.20;;;;;;5150054;27;20464;-40
2021/04/28 00:19:40;;;;;;;3.50;3.20;;;20.50;62.60;;;;;;5164357;27;20426;-39
2021/04/28 00:22:11;;;;;;;3.23;2.93;;;20.60;64.00;;;;;;5158585;27;20486;-40
2021/04/28 00:24:42;;;;;;;4.43;3.57;;;20.70;63.80;;;;;;5161014;27;20428;-39
2021/04/28 00:27:12;;;;;;;4.30;3.33;;;21.00;64.40;;;;;;5162223;27;20916;-41
2021/04/28 00:29:42;;;;;;;3.53;3.23;;;20.90;65.00;;;;;;5156080;27;20430;-41
2021/04/28 00:32:14;;;;;;;3.37;3.07;;;20.90;63.60;;;;;;5163438;27;20430;-41
2021/04/28 00:34:44;;;;;;;3.33;3.07;;;20.50;65.60;;;;;;5164862;27;20537;-42
2021/04/28 00:37:14;;;;;;;3.40;2.50;;;20.30;66.80;;;;;;5163772;27;20442;-41
2021/04/28 00:39:44;;;;;;;3.20;2.97;;;20.10;67.20;;;;;;5164203;27;20427;-41
2021/04/28 00:42:16;;;;;;;2.80;2.60;;;19.90;68.90;;;;;;5157314;27;20436;-41
2021/04/28 00:44:47;;;;;;;2.50;2.30;;;19.90;70.10;;;;;;5156313;27;20487;-41
2021/04/28 00:47:18;;;;;;;2.93;2.73;;;19.90;68.50;;;;;;5162748;27;20930;-41
2021/04/28 00:49:48;;;;;;;2.63;2.43;;;19.90;67.00;;;;;;5163519;27;20440;-41
2021/04/28 00:52:18;;;;;;;3.40;2.37;;;20.00;68.10;;;;;;5162927;27;20440;-41
2021/04/28 00:54:49;;;;;;;3.03;2.63;;;19.90;69.30;;;;;;5164502;27;20472;-42
2021/04/28 00:57:19;;;;;;;2.63;2.43;;;19.70;66.20;;;;;;5162116;27;20476;-41
2021/04/28 00:59:49;;;;;;;3.40;2.70;;;19.70;66.00;;;;;;5164590;27;20566;-41
2021/04/28 01:02:20;;;;;;;4.73;2.97;;;19.70;66.40;;;;;;5163657;27;20440;-40
2021/04/28 01:04:51;;;;;;;9.20;3.37;;;19.80;69.30;;;;;;5163945;27;20470;-41
2021/04/28 01:07:21;;;;;;;3.80;2.40;;;19.70;71.60;;;;;;5165511;27;20844;-41
2021/04/28 01:09:53;;;;;;;3.87;2.73;;;19.60;70.20;;;;;;5167563;27;21657;-42
2021/04/28 01:12:24;;;;;;;2.40;2.30;;;19.60;71.60;;;;;;5167034;27;20808;-41
2021/04/28 01:14:55;;;;;;;2.63;2.43;;;19.60;68.40;;;;;;5168291;27;20708;-41
2021/04/28 01:17:27;;;;;;;2.33;2.23;;;19.60;69.10;;;;;;5166884;27;20446;-40
2021/04/28 01:19:57;;;;;;;2.60;2.40;;;19.70;69.40;;;;;;5166775;27;20795;-40
2021/04/28 01:22:28;;;;;;;2.53;2.37;;;19.50;70.70;;;;;;5167820;27;20455;-41
2021/04/28 01:24:59;;;;;;;4.43;2.40;;;19.40;71.50;;;;;;5167800;27;20448;-40
2021/04/28 01:27:29;;;;;;;2.80;2.60;;;19.40;72.50;;;;;;5166125;27;20444;-39
2021/04/28 01:30:01;;;;;;;6.00;2.67;;;19.50;70.50;;;;;;5167354;27;20524;-40
2021/04/28 01:32:32;;;;;;;2.90;2.60;;;19.30;69.50;;;;;;5159005;27;20443;-40
2021/04/28 01:35:03;;;;;;;2.00;1.90;;;19.20;71.00;;;;;;5168148;27;20448;-40
2021/04/28 01:37:34;;;;;;;2.77;2.57;;;19.20;71.80;;;;;;5152776;27;20486;-40
2021/04/28 01:40:06;;;;;;;2.53;2.43;;;19.00;73.90;;;;;;5167534;27;20452;-41
2021/04/28 01:42:36;;;;;;;2.93;2.70;;;18.80;76.00;;;;;;5166909;27;20440;-41
2021/04/28 01:45:09;;;;;;;3.03;2.83;;;18.90;76.60;;;;;;5167050;27;20446;-41
2021/04/28 01:47:39;;;;;;;2.70;2.57;;;18.90;74.50;;;;;;5166350;27;20452;-41
2021/04/28 01:50:11;;;;;;;4.17;2.90;;;18.90;76.20;;;;;;5167417;27;20433;-39
2021/04/28 01:52:43;;;;;;;2.90;2.70;;;18.90;75.70;;;;;;5165349;27;20456;-41
2021/04/28 01:55:15;;;;;;;3.17;2.90;;;18.90;74.20;;;;;;5167347;27;20437;-41
2021/04/28 01:57:46;;;;;;;2.53;2.30;;;18.90;73.50;;;;;;5166084;27;20488;-41
2021/04/28 02:00:20;;;;;;;3.67;2.47;;;18.80;74.50;;;;;;5167268;27;20418;-41
2021/04/28 02:02:52;;;;;;;2.87;2.60;;;18.80;74.40;;;;;;5166580;27;20439;-41
2021/04/28 02:05:24;;;;;;;2.20;2.10;;;18.80;76.10;;;;;;5166455;27;20448;-41
2021/04/28 02:07:54;;;;;;;2.40;2.30;;;18.70;75.30;;;;;;5164683;27;20451;-41
2021/04/28 02:10:25;;;;;;;2.80;2.43;;;18.60;75.20;;;;;;5166980;27;20410;-40
2021/04/28 02:12:56;;;;;;;2.50;2.30;;;18.60;77.40;;;;;;5166693;27;20442;-39
2021/04/28 02:15:28;;;;;;;2.57;2.37;;;18.50;76.50;;;;;;5165509;27;20444;-41
2021/04/28 02:18:01;;;;;;;2.80;2.60;;;18.40;76.90;;;;;;5165517;27;20475;-41
2021/04/28 02:20:31;;;;;;;2.77;2.57;;;18.40;77.90;;;;;;5166762;27;20438;-40
2021/04/28 02:23:04;;;;;;;2.93;2.73;;;18.40;75.80;;;;;;5162896;27;20422;-40
2021/04/28 02:25:35;;;;;;;3.67;2.63;;;18.30;79.20;;;;;;5148875;27;20540;-40
2021/04/28 02:28:06;;;;;;;2.70;2.50;;;18.20;80.00;;;;;;5157915;27;20415;-40
2021/04/28 02:30:36;;;;;;;2.53;2.33;;;18.20;79.60;;;;;;5166502;27;20444;-40
2021/04/28 02:33:06;;;;;;;2.30;2.20;;;18.20;80.90;;;;;;5166029;27;20444;-40
2021/04/28 02:35:36;;;;;;;2.40;2.20;;;18.20;78.40;;;;;;5165099;27;20445;-40
2021/04/28 02:38:13;;;;;;;2.60;2.40;;;18.20;80.50;;;;;;5159991;27;20476;-40
2021/04/28 02:40:45;;;;;;;2.23;2.13;;;18.20;80.50;;;;;;5162475;27;20444;-40
2021/04/28 02:43:16;;;;;;;3.00;2.80;;;18.10;80.60;;;;;;5165653;27;20440;-41
2021/04/28 02:45:48;;;;;;;3.00;2.70;;;18.10;81.70;;;;;;5164932;27;20463;-41
2021/04/28 02:48:21;;;;;;;4.87;2.57;;;18.10;81.20;;;;;;5164926;27;20500;-41
2021/04/28 02:50:53;;;;;;;2.70;2.50;;;17.90;83.20;;;;;;5166377;27;20448;-42
2021/04/28 02:53:26;;;;;;;2.03;1.93;;;17.80;85.60;;;;;;5165384;27;20448;-40
2021/04/28 02:55:59;;;;;;;3.10;2.67;;;17.80;86.00;;;;;;5165235;27;20444;-41
2021/04/28 02:58:29;;;;;;;2.50;2.40;;;17.70;86.60;;;;;;5165057;27;20834;-40
2021/04/28 03:01:00;;;;;;;3.10;2.67;;;17.50;89.70;;;;;;5156698;27;20510;-40
2021/04/28 03:03:30;;;;;;;2.70;2.50;;;17.40;89.60;;;;;;5164669;27;20448;-41
2021/04/28 03:06:01;;;;;;;3.30;2.70;;;17.30;89.70;;;;;;5164383;27;21015;-41
2021/04/28 03:08:37;;;;;;;2.80;2.50;;;17.30;91.30;;;;;;5155533;27;20804;-39
2021/04/28 03:11:08;;;;;;;2.57;2.47;;;17.20;91.90;;;;;;5163200;27;20436;-41
2021/04/28 03:13:39;;;;;;;3.70;2.60;;;17.10;93.10;;;;;;5165427;27;20477;-41
2021/04/28 03:16:10;;;;;;;2.83;2.63;;;17.10;94.50;;;;;;5165239;27;20459;-41
2021/04/28 03:18:40;;;;;;;2.50;2.30;;;17.00;95.30;;;;;;5165612;27;20483;-40
2021/04/28 03:21:13;;;;;;;3.07;2.70;;;17.00;95.60;;;;;;5165915;27;20576;-39
2021/04/28 03:23:44;;;;;;;2.93;2.73;;;16.90;95.40;;;;;;5165550;27;20465;-40
2021/04/28 03:26:15;;;;;;;3.07;2.60;;;16.90;95.20;;;;;;5164791;27;20565;-41
2021/04/28 03:28:45;;;;;;;3.43;2.90;;;16.90;96.70;;;;;;5164501;27;20502;-41
2021/04/28 03:31:15;;;;;;;2.97;2.77;;;16.90;97.70;;;;;;5162968;27;20508;-43
2021/04/28 03:33:48;;;;;;;3.97;3.67;;;16.80;96.20;;;;;;5164857;27;20448;-39
2021/04/28 03:36:20;;;;;;;4.10;3.00;;;16.80;95.90;;;;;;5165386;27;20785;-40
2021/04/28 03:38:50;;;;;;;3.33;2.87;;;16.80;95.40;;;;;;5164667;27;20479;-39
2021/04/28 03:41:23;;;;;;;3.20;3.00;;;16.80;94.90;;;;;;5165008;27;20440;-41
2021/04/28 03:43:54;;;;;;;3.30;3.00;;;16.80;94.50;;;;;;5161421;27;20422;-41
2021/04/28 03:46:24;;;;;;;3.83;3.53;;;16.80;94.00;;;;;;5162333;27;20472;-40
2021/04/28 03:48:54;;;;;;;3.30;3.10;;;16.80;94.40;;;;;;5164199;27;20898;-40
2021/04/28 03:51:25;;;;;;;3.47;3.20;;;16.70;95.00;;;;;;5164451;27;20466;-39
2021/04/28 03:53:55;;;;;;;4.70;3.10;;;16.60;94.80;;;;;;5164239;27;20456;-41
2021/04/28 03:56:28;;;;;;;3.53;3.23;;;16.70;94.80;;;;;;5164173;27;20444;-41
2021/04/28 03:58:58;;;;;;;3.73;3.13;;;16.60;95.10;;;;;;5165250;27;20483;-40
2021/04/28 04:01:28;;;;;;;3.37;3.17;;;16.50;96.10;;;;;;5164859;27;20961;-40
2021/04/28 04:03:59;;;;;;;3.30;3.10;;;16.50;96.10;;;;;;5164695;27;20576;-40
2021/04/28 04:06:29;;;;;;;3.20;3.00;;;16.40;96.40;;;;;;5164298;27;20560;-40
2021/04/28 04:08:59;;;;;;;4.00;3.60;;;16.30;97.10;;;;;;5164716;27;20451;-40
2021/04/28 04:11:33;;;;;;;3.07;2.87;;;16.20;97.00;;;;;;5163484;27;20606;-40
2021/04/28 04:14:03;;;;;;;3.60;3.40;;;16.20;97.20;;;;;;5164516;27;20497;-39
2021/04/28 04:16:33;;;;;;;3.10;2.90;;;16.20;97.60;;;;;;5154441;27;20489;-40
2021/04/28 04:19:03;;;;;;;2.60;2.40;;;16.00;98.10;;;;;;5164314;27;20479;-41
2021/04/28 04:21:34;;;;;;;2.73;2.10;;;16.00;98.00;;;;;;5144542;27;20440;-42
2021/04/28 04:24:04;;;;;;;2.30;2.10;;;15.90;97.90;;;;;;5165046;27;20473;-39
2021/04/28 04:26:36;;;;;;;2.00;1.90;;;15.90;98.00;;;;;;5157821;27;20444;-39
2021/04/28 04:29:06;;;;;;;3.40;2.17;;;15.70;97.90;;;;;;5148060;27;20447;-40
2021/04/28 04:31:36;;;;;;;3.97;1.83;;;15.70;98.10;;;;;;5151544;27;20451;-40
2021/04/28 04:34:06;;;;;;;2.30;1.70;;;15.60;98.90;;;;;;5162670;27;20491;-41
2021/04/28 04:36:37;;;;;;;2.67;1.93;;;15.60;98.90;;;;;;5163685;27;20432;-40
2021/04/28 04:39:07;;;;;;;1.83;1.73;;;15.50;99.50;;;;;;5163184;27;20475;-40
2021/04/28 04:41:39;;;;;;;2.03;1.93;;;15.40;99.90;;;;;;5163165;27;20448;-39
2021/04/28 04:44:09;;;;;;;2.73;1.57;;;15.40;99.90;;;;;;5150457;27;20505;-40
2021/04/28 04:46:39;;;;;;;1.77;1.67;;;15.30;99.90;;;;;;5151135;27;20464;-41
2021/04/28 04:49:10;;;;;;;1.27;1.17;;;15.20;99.90;;;;;;5163095;27;20448;-41
2021/04/28 04:51:40;;;;;;;1.43;1.37;;;15.10;99.90;;;;;;5167732;27;20443;-40
2021/04/28 04:54:10;;;;;;;1.40;1.30;;;15.00;99.90;;;;;;5167518;27;20471;-41
2021/04/28 04:56:41;;;;;;;2.00;1.47;;;14.90;99.90;;;;;;5167553;27;20476;-40
2021/04/28 04:59:11;;;;;;;1.53;1.43;;;14.80;99.90;;;;;;5167122;27;20479;-39
2021/04/28 05:01:41;;;;;;;1.60;1.50;;;14.70;99.90;;;;;;5168436;27;20563;-40
2021/04/28 05:04:11;;;;;;;1.50;1.40;;;14.70;99.90;;;;;;5151741;27;20888;-40
2021/04/28 05:06:41;;;;;;;2.57;1.50;;;14.60;99.90;;;;;;5168210;27;20504;-40
2021/04/28 05:09:11;;;;;;;2.00;1.20;;;14.50;99.90;;;;;;5159232;27;20451;-41
2021/04/28 05:11:42;;;;;;;1.43;1.13;;;14.50;99.90;;;;;;5167110;27;20481;-40
2021/04/28 05:14:12;;;;;;;2.40;1.30;;;14.40;99.90;;;;;;5166878;27;20456;-41
2021/04/28 05:16:42;;;;;;;1.70;1.50;;;14.30;99.90;;;;;;5166707;27;20724;-40
2021/04/28 05:19:12;;;;;;;2.60;1.43;;;14.30;99.90;;;;;;5167448;27;20468;-40
2021/04/28 05:21:42;;;;;;;1.90;1.40;;;14.20;99.90;;;;;;5167952;27;20451;-40
2021/04/28 05:24:12;;;;;;;1.23;1.10;;;14.20;99.90;;;;;;5166079;27;20448;-38
2021/04/28 05:26:43;;;;;;;2.50;1.40;;;14.10;99.90;;;;;;5165832;27;20528;-38
2021/04/28 05:29:13;;;;;;;1.63;1.10;;;14.10;99.90;;;;;;5160711;27;20931;-39
2021/04/28 05:31:43;;;;;;;2.80;1.53;;;14.10;99.90;;;;;;5164275;27;20447;-40
2021/04/28 05:34:14;;;;;;;1.13;1.13;;;14.00;99.90;;;;;;5148386;27;20496;-41
2021/04/28 05:36:44;;;;;;;1.53;1.20;;;13.90;99.90;;;;;;5159109;27;20537;-40
2021/04/28 05:39:14;;;;;;;1.30;1.23;;;13.80;99.90;;;;;;5152967;27;20480;-41
2021/04/28 05:41:45;;;;;;;3.17;1.20;;;13.80;99.90;;;;;;5161986;27;20459;-40
2021/04/28 05:44:16;;;;;;;1.00;1.00;;;13.70;99.90;;;;;;5161312;27;20476;-40
2021/04/28 05:46:47;;;;;;;2.00;1.50;;;13.70;99.90;;;;;;5166901;27;20448;-41
2021/04/28 05:49:17;;;;;;;1.20;0.90;;;13.60;99.90;;;;;;5168332;27;20472;-40
2021/04/28 05:51:47;;;;;;;1.33;1.20;;;13.50;99.90;;;;;;5167458;27;20473;-39
2021/04/28 05:54:17;;;;;;;3.17;1.00;;;13.50;99.90;;;;;;5165369;27;20481;-40
2021/04/28 05:56:48;;;;;;;1.37;1.23;;;13.40;99.90;;;;;;5159109;27;20844;-36
2021/04/28 05:59:19;;;;;;;2.60;1.40;;;13.40;99.90;;;;;;5165867;27;21054;-40
2021/04/28 06:01:49;;;;;;;1.90;1.27;;;13.30;99.90;;;;;;5166651;27;20457;-40
2021/04/28 06:04:19;;;;;;;1.50;1.40;;;13.30;99.90;;;;;;5164297;27;20453;-39
2021/04/28 06:06:49;;;;;;;2.90;1.47;;;13.20;99.90;;;;;;5154066;27;20500;-40
2021/04/28 06:09:20;;;;;;;2.50;1.25;;;13.20;99.90;;;;;;5166867;27;20440;-41
2021/04/28 06:11:51;;;;;;;1.60;1.48;;;13.20;99.90;;;;;;5166273;27;20206;-40
2021/04/28 06:14:21;;;;;;;2.30;1.40;;;13.10;99.90;;;;;;5165985;27;20231;-40
2021/04/28 06:16:51;;;;;;;2.53;1.10;;;13.00;99.90;;;;;;5161151;27;20485;-40
2021/04/28 06:19:21;;;;;;;1.50;1.40;;;13.00;99.90;;;;;;5160293;27;20809;-40
2021/04/28 06:21:51;;;;;;;1.10;1.10;;;13.00;99.90;;;;;;5166447;27;20921;-40
2021/04/28 06:24:21;;;;;;;1.87;1.77;;;12.90;99.90;;;;;;5163430;27;20478;-40
2021/04/28 06:26:52;;;;;;;1.67;1.47;;;12.90;99.90;;;;;;5165164;27;20555;-40
2021/04/28 06:29:23;;;;;;;1.20;1.10;;;12.80;99.90;;;;;;5162535;27;20444;-39
2021/04/28 06:31:53;;;;;;;2.20;1.47;;;12.80;99.90;;;;;;5162598;27;20523;-41
2021/04/28 06:34:23;;;;;;;1.90;1.37;;;12.70;99.90;;;;;;5166171;27;20540;-39
2021/04/28 06:36:53;;;;;;;1.27;1.17;;;12.70;99.90;;;;;;5165834;27;20859;-39
2021/04/28 06:39:23;;;;;;;1.30;1.20;;;12.60;99.90;;;;;;5162706;27;20484;-40
2021/04/28 06:41:55;;;;;;;1.33;1.27;;;12.50;99.90;;;;;;5165490;27;20884;-40
2021/04/28 06:44:26;;;;;;;1.37;1.20;;;12.50;99.90;;;;;;5164655;27;20479;-40
2021/04/28 06:46:56;;;;;;;1.80;1.40;;;12.40;99.90;;;;;;5166340;27;20539;-40
2021/04/28 06:49:26;;;;;;;1.20;1.20;;;12.40;99.90;;;;;;5165438;27;20448;-40
2021/04/28 06:51:56;;;;;;;1.43;1.33;;;12.30;99.90;;;;;;5165794;27;20566;-40
2021/04/28 06:54:27;;;;;;;1.73;1.45;;;12.30;99.90;;;;;;5164341;27;20444;-40
2021/04/28 06:56:58;;;;;;;1.37;1.27;;;12.30;99.90;;;;;;5164648;27;20244;-41
2021/04/28 06:59:32;;;;;;;2.50;1.30;;;12.20;99.90;;;;;;5166059;27;20502;-39
2021/04/28 07:02:02;;;;;;;1.50;1.40;;;12.20;99.90;;;;;;5161312;27;20451;-40
2021/04/28 07:04:34;;;;;;;1.70;1.60;;;12.20;99.90;;;;;;5164657;27;20847;-39
2021/04/28 07:07:04;;;;;;;1.63;1.40;;;12.10;99.90;;;;;;5165476;27;20444;-39
2021/04/28 07:09:34;;;;;;;1.37;1.07;;;12.10;99.90;;;;;;5163942;27;20448;-38
2021/04/28 07:12:05;;;;;;;1.50;1.40;;;12.00;99.90;;;;;;5163730;27;20840;-40
2021/04/28 07:14:35;;;;;;;2.20;1.30;;;11.90;99.90;;;;;;5165433;27;20260;-38
2021/04/28 07:17:05;;;;;;;2.05;1.33;;;11.90;99.90;;;;;;5163519;27;20455;-40
2021/04/28 07:19:35;;;;;;;2.20;1.23;;;11.80;99.90;;;;;;5159558;27;20530;-40
2021/04/28 07:22:06;;;;;;;1.85;1.23;;;11.80;99.90;;;;;;5164891;27;20493;-40
2021/04/28 07:24:36;;;;;;;1.43;1.33;;;11.80;99.90;;;;;;5161671;27;20198;-40
2021/04/28 07:27:07;;;;;;;2.10;1.40;;;11.90;99.90;;;;;;5152825;27;20448;-40
2021/04/28 07:29:37;;;;;;;1.60;1.50;;;11.80;99.90;;;;;;5165912;27;20190;-40
2021/04/28 07:32:07;;;;;;;1.30;1.20;;;11.70;99.90;;;;;;5164333;27;20469;-39
2021/04/28 07:34:37;;;;;;;0.85;0.82;;;11.70;99.90;;;;;;5164994;27;20476;-40
2021/04/28 07:37:07;;;;;;;4.10;1.30;;;11.60;99.90;;;;;;5163528;27;20199;-40
2021/04/28 07:39:37;;;;;;;1.20;1.10;;;11.60;99.90;;;;;;5143389;27;20488;-41
2021/04/28 07:42:09;;;;;;;1.03;0.93;;;11.60;99.90;;;;;;5156407;27;20540;-39
2021/04/28 07:44:39;;;;;;;1.50;0.77;;;11.60;99.90;;;;;;5161774;27;20484;-40
2021/04/28 07:47:10;;;;;;;1.30;1.20;;;11.60;99.90;;;;;;5164432;27;20496;-39
2021/04/28 07:49:40;;;;;;;1.85;1.27;;;11.60;99.90;;;;;;5164721;27;20533;-40
2021/04/28 07:52:20;;;;;;;1.60;1.10;;;11.60;99.90;;;;;;5163944;27;20198;-39
2021/04/28 07:54:50;;;;;;;2.15;1.13;;;11.60;99.90;;;;;;5164074;27;20560;-39
2021/04/28 07:57:22;;;;;;;2.70;1.55;;;11.60;99.90;;;;;;5163353;27;20202;-38
2021/04/28 07:59:52;;;;;;;1.67;1.10;;;11.50;99.90;;;;;;5165487;27;20206;-39
2021/04/28 08:02:22;;;;;;;1.40;1.30;;;11.40;99.90;;;;;;5162944;27;20327;-39
2021/04/28 08:04:52;;;;;;;1.13;1.02;;;11.50;99.90;;;;;;5163556;27;20226;-40
2021/04/28 08:07:22;;;;;;;1.27;1.17;;;11.50;99.90;;;;;;5163717;27;20197;-40
2021/04/28 08:09:52;;;;;;;1.20;1.20;;;11.50;99.90;;;;;;5164400;27;20198;-40
2021/04/28 08:12:23;;;;;;;1.15;1.10;;;11.40;99.90;;;;;;5164206;27;20191;-39
2021/04/28 08:14:53;;;;;;;1.60;1.50;;;11.30;99.90;;;;;;5164957;27;20210;-39
2021/04/28 08:17:23;;;;;;;1.30;1.20;;;11.20;99.90;;;;;;5162467;27;20206;-36
2021/04/28 08:19:53;;;;;;;1.65;1.50;;;11.20;99.90;;;;;;5164677;27;20231;-40
2021/04/28 08:22:23;;;;;;;1.35;1.10;;;11.20;99.90;;;;;;5163818;27;20198;-38
2021/04/28 08:24:55;;;;;;;1.33;1.23;;;11.20;99.90;;;;;;5163615;27;20205;-40
2021/04/28 08:27:26;;;;;;;1.67;0.95;;;11.30;99.90;;;;;;5162694;27;20198;-40
2021/04/28 08:29:57;;;;;;;3.05;1.50;;;11.30;99.90;;;;;;5164877;27;20240;-40
2021/04/28 08:32:27;;;;;;;1.42;1.33;;;11.30;99.90;;;;;;5163363;27;20190;-38
2021/04/28 08:34:57;;;;;;;2.03;1.35;;;11.20;99.90;;;;;;5164389;27;20251;-40
2021/04/28 08:37:27;;;;;;;1.90;1.35;;;11.30;99.90;;;;;;5163801;27;20203;-36
2021/04/28 08:39:57;;;;;;;1.60;1.50;;;11.20;99.90;;;;;;5164215;27;20279;-39
2021/04/28 08:42:28;;;;;;;2.50;1.50;;;11.20;99.90;;;;;;5162961;27;20251;-39
2021/04/28 08:45:01;;;;;;;1.83;1.30;;;11.20;99.90;;;;;;5164197;27;20567;-37
2021/04/28 08:47:32;;;;;;;1.63;1.52;;;11.10;99.90;;;;;;5163863;27;20218;-38
2021/04/28 08:50:02;;;;;;;1.80;1.70;;;11.10;99.90;;;;;;5160875;27;20199;-39
2021/04/28 08:52:35;;;;;;;2.13;1.20;;;11.10;99.90;;;;;;5150496;27;20206;-42
2021/04/28 08:55:07;;;;;;;2.38;2.17;;;11.10;99.90;;;;;;5164822;27;20224;-42
2021/04/28 08:57:39;;;;;;;2.35;2.15;;;11.10;99.90;;;;;;5158547;27;20232;-42
2021/04/28 09:00:10;;;;;;;1.70;1.60;;;11.00;99.90;;;;;;5163396;27;20218;-40
2021/04/28 09:02:53;;;;;;;1.52;1.35;;;11.00;99.90;;;;;;5163925;27;20251;-41
2021/04/28 09:05:23;;;;;;;1.92;1.50;;;10.90;99.90;;;;;;5163923;27;20346;-39
2021/04/28 09:07:53;;;;;;;2.47;1.60;;;10.80;99.90;;;;;;5163623;27;20198;-40
2021/04/28 09:10:25;;;;;;;1.50;1.40;;;10.70;99.90;;;;;;5164224;27;20210;-39
2021/04/28 09:12:58;;;;;;;1.63;1.52;;;10.70;99.90;;;;;;5163026;27;20203;-40
2021/04/28 09:15:37;;;;;;;1.73;1.30;;;10.60;99.90;;;;;;5163683;27;20220;-40
2021/04/28 09:18:09;;;;;;;3.55;1.45;;;10.60;99.90;;;;;;5162366;27;20254;-40
2021/04/28 09:20:44;;;;;;;2.22;1.85;;;10.50;99.90;;;;;;5164294;27;20617;-40
2021/04/28 09:23:16;;;;;;;1.67;1.50;;;10.40;99.90;;;;;;5163866;27;20194;-39
2021/04/28 09:25:47;;;;;;;3.05;1.50;;;10.40;99.90;;;;;;5156680;27;20213;-36
2021/04/28 09:28:37;;;;;;;1.73;1.63;;;10.40;99.90;;;;;;5163782;27;20190;-40
2021/04/28 09:31:17;;;;;;;3.08;1.38;;;10.30;99.90;;;;;;5167905;27;20234;-39
2021/04/28 09:33:53;;;;;;;2.23;1.47;;;10.30;99.90;;;;;;5167757;27;20254;-40
2021/04/28 09:36:34;;;;;;;2.22;1.30;;;10.30;99.90;;;;;;5166285;27;20454;-39
2021/04/28 09:39:07;;;;;;;1.40;1.30;;;10.30;99.90;;;;;;5167693;27;20232;-39
2021/04/28 09:41:40;;;;;;;2.38;1.70;;;10.30;99.90;;;;;;5166291;27;20202;-40
2021/04/28 09:44:29;;;;;;;1.38;1.27;;;10.10;99.90;;;;;;5167304;27;20598;-39
2021/04/28 09:47:02;;;;;;;2.00;1.58;;;10.00;99.90;;;;;;5162189;27;20191;-38
2021/04/28 09:50:00;;;;;;;1.70;1.60;;;10.00;99.90;;;;;;5167288;27;20543;-40
2021/04/28 09:52:42;;;;;;;1.58;1.48;;;10.00;99.90;;;;;;5160763;27;20227;-39
2021/04/28 09:55:14;;;;;;;1.52;1.42;;;9.90;99.90;;;;;;5166952;27;20267;-40
2021/04/28 09:57:45;;;;;;;2.20;1.80;;;9.90;99.90;;;;;;5165861;27;20729;-39
2021/04/28 10:00:20;;;;;;;1.23;1.13;;;9.80;99.90;;;;;;5167230;27;20608;-39
2021/04/28 10:02:55;;;;;;;1.85;1.75;;;9.80;99.90;;;;;;5166963;27;20209;-39
2021/04/28 10:05:28;;;;;;;1.80;1.50;;;9.70;99.90;;;;;;5167469;27;20186;-38
2021/04/28 10:08:13;;;;;;;2.13;1.70;;;9.70;99.90;;;;;;5164243;27;20650;-38
2021/04/28 10:10:43;;;;;;;1.65;1.50;;;9.70;99.90;;;;;;5167095;27;20202;-40
2021/04/28 10:13:14;;;;;;;2.05;1.50;;;9.60;99.90;;;;;;5165774;27;20197;-39
2021/04/28 10:15:46;;;;;;;4.18;2.50;;;9.60;99.90;;;;;;5166507;27;20203;-39
2021/04/28 10:18:19;;;;;;;2.53;1.83;;;9.50;99.90;;;;;;5142066;27;20195;-38
2021/04/28 10:20:50;;;;;;;1.70;1.60;;;9.50;99.90;;;;;;5166899;27;20186;-39
2021/04/28 10:23:21;;;;;;;2.20;1.70;;;9.50;99.90;;;;;;5166660;27;20601;-39
2021/04/28 10:25:52;;;;;;;1.98;1.40;;;9.50;99.90;;;;;;5165049;27;20195;-39
2021/04/28 10:28:24;;;;;;;1.95;1.67;;;9.40;99.90;;;;;;5160072;27;20202;-37
2021/04/28 10:30:56;;;;;;;1.92;1.40;;;9.40;99.90;;;;;;5167114;27;20244;-38
2021/04/28 10:33:29;;;;;;;2.25;1.80;;;9.40;99.90;;;;;;5166326;27;20208;-38
2021/04/28 10:36:14;;;;;;;3.00;1.98;;;9.30;99.90;;;;;;5166419;27;20218;-37
2021/04/28 10:38:45;;;;;;;3.05;2.10;;;9.30;99.90;;;;;;5165362;27;20290;-36
2021/04/28 10:41:36;;;;;;;1.95;1.85;;;9.20;99.90;;;;;;5166133;27;20227;-39
2021/04/28 10:44:08;;;;;;;2.08;1.92;;;9.10;99.90;;;;;;5166398;27;20213;-39
2021/04/28 10:46:39;;;;;;;2.22;1.88;;;9.00;99.90;;;;;;5163952;27;20248;-37
2021/04/28 10:49:24;;;;;;;1.80;1.63;;;9.00;99.90;;;;;;5163772;27;20653;-38
2021/04/28 10:51:54;;;;;;;2.03;1.77;;;9.00;99.90;;;;;;5166265;27;20202;-39
2021/04/28 10:54:26;;;;;;;2.83;1.75;;;9.00;99.90;;;;;;5166343;27;20206;-39
2021/04/28 10:57:06;;;;;;;2.90;2.30;;;9.00;99.90;;;;;;5164893;27;20547;-37
2021/04/28 10:59:41;;;;;;;1.75;1.52;;;9.00;99.90;;;;;;5165900;27;20606;-36
2021/04/28 11:02:15;;;;;;;3.80;2.22;;;8.90;99.90;;;;;;5165717;27;20662;-39
2021/04/28 11:04:47;;;;;;;1.80;1.70;;;8.90;99.90;;;;;;5165776;27;20236;-38
2021/04/28 11:07:42;;;;;;;2.78;1.52;;;8.90;99.90;;;;;;5166087;27;20202;-38
2021/04/28 11:10:31;;;;;;;2.50;2.10;;;8.90;99.90;;;;;;5166147;27;20202;-38
2021/04/28 11:13:08;;;;;;;1.63;1.52;;;8.80;99.90;;;;;;5164942;27;20199;-38
2021/04/28 11:15:50;;;;;;;1.80;1.70;;;8.80;99.90;;;;;;5165550;27;20194;-39
2021/04/28 11:18:32;;;;;;;3.60;2.05;;;8.80;99.90;;;;;;5165822;27;20193;-38
2021/04/28 11:21:27;;;;;;;3.50;1.85;;;8.70;99.90;;;;;;5165575;27;20198;-39
2021/04/28 11:24:08;;;;;;;2.30;1.90;;;8.60;99.90;;;;;;5164052;27;20251;-39
2021/04/28 11:26:39;;;;;;;2.15;1.95;;;8.70;99.90;;;;;;5163851;27;20258;-36
2021/04/28 11:29:09;;;;;;;2.20;1.80;;;8.70;99.90;;;;;;5165108;27;20622;-39
2021/04/28 11:31:44;;;;;;;2.10;1.80;;;8.60;99.90;;;;;;5165115;27;20261;-38
2021/04/28 11:34:34;;;;;;;2.35;1.85;;;8.60;99.90;;;;;;5165399;27;20232;-38
2021/04/28 11:37:06;;;;;;;2.72;2.47;;;8.60;99.90;;;;;;5164639;27;20198;-38
2021/04/28 11:39:40;;;;;;;2.35;2.15;;;8.60;99.90;;;;;;5165408;27;20222;-38
2021/04/28 11:42:12;;;;;;;2.20;2.10;;;8.50;99.90;;;;;;5163904;27;20201;-39
2021/04/28 11:44:49;;;;;;;2.40;2.20;;;8.50;99.90;;;;;;5164536;27;20614;-37
2021/04/28 11:47:20;;;;;;;2.75;2.10;;;8.50;99.90;;;;;;5165232;27;20261;-38
2021/04/28 11:49:53;;;;;;;2.42;2.22;;;8.40;99.90;;;;;;5164470;27;20262;-39
2021/04/28 11:52:26;;;;;;;2.40;2.20;;;8.40;99.90;;;;;;5164780;27;20555;-38
2021/04/28 11:54:57;;;;;;;2.33;2.15;;;8.30;99.90;;;;;;5164506;27;20217;-38
2021/04/28 11:57:29;;;;;;;2.35;2.10;;;8.20;99.90;;;;;;5164057;27;20214;-39
2021/04/28 12:00:06;;;;;;;2.60;2.40;;;8.20;99.90;;;;;;5164422;27;20225;-38
2021/04/28 12:02:36;;;;;;;2.38;2.17;;;8.20;99.90;;;;;;5163196;27;20206;-36
2021/04/28 12:05:08;;;;;;;2.35;2.15;;;8.20;99.90;;;;;;5157018;27;20194;-37
2021/04/28 12:07:46;;;;;;;3.17;2.08;;;8.20;99.90;;;;;;5164248;27;20190;-36
2021/04/28 12:10:17;;;;;;;2.13;1.92;;;8.10;99.90;;;;;;5164919;27;20202;-38
2021/04/28 12:12:47;;;;;;;3.38;2.20;;;8.00;99.90;;;;;;5163678;27;20263;-38
2021/04/28 12:15:18;;;;;;;3.95;2.40;;;8.10;99.90;;;;;;5164289;27;20207;-36
2021/04/28 12:17:49;;;;;;;2.60;2.40;;;8.10;99.90;;;;;;5164100;27;20202;-37
2021/04/28 12:20:21;;;;;;;3.20;2.30;;;8.10;99.90;;;;;;5164633;27;20241;-38
2021/04/28 12:23:02;;;;;;;2.38;2.15;;;8.10;99.90;;;;;;5164381;27;20615;-38
2021/04/28 12:25:32;;;;;;;2.47;2.20;;;8.10;99.90;;;;;;5161023;27;20216;-37
2021/04/28 12:28:03;;;;;;;2.83;2.63;;;8.10;99.90;;;;;;5162962;27;20266;-39
2021/04/28 12:30:33;;;;;;;2.83;2.63;;;8.10;99.90;;;;;;5163519;27;20525;-37
2021/04/28 12:33:03;;;;;;;2.70;2.10;;;8.00;99.90;;;;;;5164479;27;20199;-39
2021/04/28 12:35:36;;;;;;;2.70;2.38;;;8.00;99.90;;;;;;5160602;27;20225;-38
2021/04/28 12:38:09;;;;;;;3.25;2.50;;;8.00;99.90;;;;;;5163092;27;20191;-34
2021/04/28 12:40:41;;;;;;;2.63;2.15;;;8.00;99.90;;;;;;5163678;27;20222;-38
2021/04/28 12:43:12;;;;;;;2.70;1.92;;;8.00;99.90;;;;;;5162180;27;20274;-38
2021/04/28 12:46:04;;;;;;;2.72;2.50;;;7.90;99.90;;;;;;5163349;27;20239;-38
2021/04/28 12:48:53;;;;;;;2.25;2.10;;;8.00;99.90;;;;;;5166516;27;20202;-36
2021/04/28 12:51:24;;;;;;;2.47;2.28;;;8.00;99.90;;;;;;5163747;27;20202;-36
2021/04/28 12:53:54;;;;;;;3.03;2.60;;;8.00;99.90;;;;;;5164360;27;20210;-35
2021/04/28 12:56:24;;;;;;;3.30;3.10;;;7.90;99.90;;;;;;5162421;27;20191;-40
2021/04/28 12:58:56;;;;;;;3.97;2.45;;;7.80;99.90;;;;;;5163930;27;20227;-40
2021/04/28 13:01:26;;;;;;;2.95;2.40;;;7.90;99.90;;;;;;5163196;27;20301;-36
2021/04/28 13:03:56;;;;;;;2.50;2.30;;;7.90;99.90;;;;;;5167022;27;20224;-40
2021/04/28 13:06:28;;;;;;;2.63;2.35;;;7.90;99.90;;;;;;5165931;27;20235;-36
2021/04/28 13:09:02;;;;;;;3.00;2.58;;;7.90;99.90;;;;;;5168152;27;20205;-38
2021/04/28 13:11:43;;;;;;;2.30;2.08;;;7.90;99.90;;;;;;5160137;27;20297;-35
2021/04/28 13:14:16;;;;;;;2.42;2.30;;;7.90;99.90;;;;;;5165774;27;20202;-36
2021/04/28 13:16:55;;;;;;;2.90;2.70;;;7.90;99.90;;;;;;5166796;27;20207;-39